createdAt,value
2019-02-15T00:03:49.725Z,7.36
2019-02-15T00:08:54.973Z,7.33
2019-02-15T00:14:00.238Z,7.31
2019-02-15T00:19:07.221Z,7.32
2019-02-15T00:24:12.419Z,7.21
2019-02-15T00:29:18.225Z,7.15
2019-02-15T00:34:23.933Z,7.10
2019-02-15T00:39:29.283Z,7.12
2019-02-15T00:44:34.830Z,7.16
2019-02-15T00:49:41.942Z,7.10
2019-02-15T00:55:05.450Z,7.00
2019-02-15T01:00:21.436Z,7.17
2019-02-15T01:05:45.021Z,7.11
2019-02-15T01:10:52.018Z,7.06
2019-02-15T01:15:57.576Z,6.97
2019-02-15T01:21:02.946Z,6.95
2019-02-15T01:26:09.948Z,6.83
2019-02-15T01:31:19.703Z,6.73
2019-02-15T01:36:32.721Z,6.64
2019-02-15T01:41:41.911Z,6.45
2019-02-15T01:46:51.139Z,6.45
2019-02-15T01:51:56.461Z,6.46
2019-02-15T01:57:02.065Z,6.48
2019-02-15T02:02:07.841Z,6.26
2019-02-15T02:07:13.183Z,6.25
2019-02-15T02:12:18.437Z,6.08
2019-02-15T02:17:23.866Z,6.05
2019-02-15T02:22:29.277Z,6.01
2019-02-15T02:27:34.713Z,6.08
2019-02-15T02:32:40.190Z,6.13
2019-02-15T02:37:45.585Z,5.97
2019-02-15T02:42:51.020Z,5.88
2019-02-15T02:47:56.466Z,5.82
2019-02-15T02:53:01.738Z,5.77
2019-02-15T02:58:07.184Z,5.72
2019-02-15T03:03:12.542Z,5.85
2019-02-15T03:08:17.946Z,5.83
2019-02-15T03:13:23.047Z,5.85
2019-02-15T03:18:28.272Z,5.69
2019-02-15T03:23:33.399Z,5.72
2019-02-15T03:28:39.024Z,5.80
2019-02-15T03:33:44.329Z,5.77
2019-02-15T03:38:53.838Z,5.67
2019-02-15T03:43:59.206Z,5.64
2019-02-15T03:49:04.682Z,5.56
2019-02-15T03:54:09.971Z,5.59
2019-02-15T03:59:15.290Z,5.67
2019-02-15T04:04:20.633Z,5.74
2019-02-15T04:09:26.014Z,5.69
2019-02-15T04:14:33.079Z,5.62
2019-02-15T04:19:38.138Z,5.58
2019-02-15T04:24:43.188Z,5.64
2019-02-15T04:29:48.398Z,5.74
2019-02-15T04:34:53.814Z,5.71
2019-02-15T04:39:59.389Z,5.73
2019-02-15T04:45:06.829Z,5.79
2019-02-15T04:50:12.258Z,5.75
2019-02-15T04:55:17.642Z,5.85
2019-02-15T05:00:22.860Z,5.79
2019-02-15T05:05:28.210Z,5.85
2019-02-15T05:10:33.591Z,5.95
2019-02-15T05:15:38.936Z,5.76
2019-02-15T05:20:44.302Z,5.75
2019-02-15T05:25:49.675Z,5.84
2019-02-15T05:30:55.114Z,5.82
2019-02-15T05:36:00.379Z,5.86
2019-02-15T05:41:05.540Z,5.88
2019-02-15T05:46:10.883Z,5.95
2019-02-15T05:51:16.152Z,6.00
2019-02-15T05:56:21.491Z,6.02
2019-02-15T06:01:27.665Z,6.03
2019-02-15T06:06:32.932Z,6.07
2019-02-15T06:11:38.286Z,6.07
2019-02-15T06:16:43.549Z,6.20
2019-02-15T06:21:48.903Z,6.23
2019-02-15T06:26:54.124Z,6.32
2019-02-15T06:32:00.424Z,6.18
2019-02-15T06:37:05.716Z,6.22
2019-02-15T06:42:11.152Z,6.20
2019-02-15T06:47:16.449Z,6.25
2019-02-15T06:52:21.774Z,6.23
2019-02-15T06:57:27.164Z,6.20
2019-02-15T07:02:34.224Z,6.39
2019-02-15T07:07:39.489Z,6.30
2019-02-15T07:12:44.753Z,6.26
2019-02-15T07:17:50.307Z,6.40
2019-02-15T07:22:55.551Z,6.51
2019-02-15T07:28:00.901Z,6.48
2019-02-15T07:33:06.540Z,6.51
2019-02-15T07:38:12.164Z,6.54
2019-02-15T07:43:18.450Z,6.60
2019-02-15T07:48:23.796Z,6.72
2019-02-15T07:53:29.212Z,6.63
2019-02-15T07:58:35.190Z,6.66
2019-02-15T08:03:40.269Z,6.59
2019-02-15T08:08:45.516Z,6.68
2019-02-15T08:13:50.781Z,6.72
2019-02-15T08:18:56.038Z,6.60
2019-02-15T08:24:01.122Z,6.62
2019-02-15T08:29:06.462Z,6.60
2019-02-15T08:34:11.844Z,6.70
2019-02-15T08:39:18.403Z,6.77
2019-02-15T08:44:23.949Z,6.84
2019-02-15T08:49:29.344Z,6.94
2019-02-15T08:54:35.007Z,6.88
2019-02-15T08:59:40.221Z,7.01
2019-02-15T09:04:46.430Z,7.16
2019-02-15T09:09:51.493Z,7.12
2019-02-15T09:14:56.744Z,7.21
2019-02-15T09:20:02.198Z,7.31
2019-02-15T09:25:09.535Z,7.24
2019-02-15T09:30:15.776Z,7.18
2019-02-15T09:35:21.268Z,7.14
2019-02-15T09:40:26.420Z,7.12
2019-02-15T09:45:33.014Z,7.15
2019-02-15T09:50:38.536Z,7.16
2019-02-15T09:55:43.648Z,7.09
2019-02-15T10:00:48.951Z,7.09
2019-02-15T10:05:54.314Z,7.21
2019-02-15T10:10:59.561Z,7.23
2019-02-15T10:16:04.643Z,7.33
2019-02-15T10:21:09.877Z,7.37
2019-02-15T10:26:15.081Z,7.25
2019-02-15T10:31:20.481Z,7.47
2019-02-15T10:36:25.611Z,7.50
2019-02-15T10:41:31.029Z,7.39
2019-02-15T10:46:38.009Z,7.29
2019-02-15T10:51:43.794Z,7.36
2019-02-15T10:56:49.227Z,7.27
2019-02-15T11:01:54.806Z,7.22
2019-02-15T11:07:01.383Z,7.26
2019-02-15T11:12:06.960Z,7.26
2019-02-15T11:17:12.076Z,7.28
2019-02-15T11:22:17.566Z,7.21
2019-02-15T11:27:22.898Z,7.32
2019-02-15T11:32:28.230Z,7.33
2019-02-15T11:37:33.618Z,7.34
2019-02-15T11:42:38.903Z,7.47
2019-02-15T11:47:44.469Z,7.52
2019-02-15T11:52:49.826Z,7.46
2019-02-15T11:57:55.084Z,7.52
2019-02-15T12:03:00.243Z,7.61
2019-02-15T12:08:05.599Z,7.57
2019-02-15T12:13:10.987Z,7.59
2019-02-15T12:18:16.510Z,7.33
2019-02-15T12:23:22.483Z,7.33
2019-02-15T12:28:27.947Z,7.31
2019-02-15T12:33:33.301Z,7.17
2019-02-15T12:38:38.565Z,7.24
2019-02-15T12:43:43.822Z,7.18
2019-02-15T12:48:49.068Z,6.89
2019-02-15T12:53:54.583Z,6.94
2019-02-15T12:58:59.644Z,6.87
2019-02-15T13:04:04.938Z,6.79
2019-02-15T13:09:10.322Z,6.74
2019-02-15T13:14:15.872Z,6.82
2019-02-15T13:19:21.435Z,7.04
2019-02-15T13:24:26.643Z,7.16
2019-02-15T13:29:31.797Z,7.20
2019-02-15T13:34:37.277Z,7.12
2019-02-15T13:39:42.663Z,7.23
2019-02-15T13:44:48.053Z,7.38
2019-02-15T13:49:53.201Z,7.44
2019-02-15T13:54:58.575Z,7.14
2019-02-15T14:00:04.249Z,7.02
2019-02-15T14:05:11.628Z,6.92
2019-02-15T14:10:16.983Z,7.02
2019-02-15T14:15:23.652Z,7.07
2019-02-15T14:20:29.328Z,7.21
2019-02-15T14:25:34.685Z,7.09
2019-02-15T14:30:40.272Z,7.04
2019-02-15T14:35:46.012Z,7.07
2019-02-15T14:40:51.465Z,7.03
2019-02-15T14:45:56.724Z,6.83
2019-02-15T14:51:01.890Z,6.76
2019-02-15T14:56:07.202Z,6.77
2019-02-15T15:01:12.393Z,6.44
2019-02-15T15:06:17.859Z,6.57
2019-02-15T15:11:23.985Z,6.54
2019-02-15T15:16:30.304Z,6.68
2019-02-15T15:21:35.567Z,6.68
2019-02-15T15:26:40.728Z,6.35
2019-02-15T15:31:48.713Z,6.41
2019-02-15T15:36:54.409Z,6.31
2019-02-15T15:41:59.560Z,6.27
2019-02-15T15:47:05.444Z,6.38
2019-02-15T15:52:10.854Z,6.33
2019-02-15T15:57:16.248Z,6.33
2019-02-15T16:02:21.503Z,6.18
2019-02-15T16:07:26.963Z,6.16
2019-02-15T16:12:32.095Z,6.06
2019-02-15T16:17:37.796Z,6.04
2019-02-15T16:22:43.142Z,6.14
2019-02-15T16:27:48.507Z,6.06
2019-02-15T16:32:53.676Z,6.14
2019-02-15T16:37:59.132Z,6.07
2019-02-15T16:43:04.473Z,5.89
2019-02-15T16:48:09.915Z,5.90
2019-02-15T16:53:15.609Z,6.00
2019-02-15T16:58:20.972Z,6.05
2019-02-15T17:03:26.454Z,5.96
2019-02-15T17:08:31.990Z,5.92
2019-02-15T17:13:37.361Z,5.81
2019-02-15T17:18:51.144Z,5.77
2019-02-15T17:23:49.498Z,5.74
2019-02-15T17:28:54.990Z,5.75
2019-02-15T17:34:00.216Z,5.65
2019-02-15T17:39:06.303Z,5.64
2019-02-15T17:44:12.781Z,5.71
2019-02-15T17:49:18.033Z,5.60
2019-02-15T17:54:23.287Z,5.57
2019-02-15T17:59:28.536Z,5.61
2019-02-15T18:04:34.024Z,5.52
2019-02-15T18:09:39.397Z,5.42
2019-02-15T18:14:44.653Z,5.35
2019-02-15T18:19:49.724Z,5.26
2019-02-15T18:24:54.902Z,5.13
2019-02-15T18:29:59.984Z,5.07
2019-02-15T18:35:05.884Z,5.04
2019-02-15T18:40:11.739Z,5.11
2019-02-15T18:45:17.385Z,4.99
2019-02-15T18:50:22.868Z,4.94
2019-02-15T18:55:28.124Z,4.92
2019-02-15T19:00:33.468Z,4.96
2019-02-15T19:05:38.718Z,4.95
2019-02-15T19:10:43.987Z,4.91
2019-02-15T19:15:49.752Z,4.84
2019-02-15T19:20:55.139Z,4.80
2019-02-15T19:26:01.592Z,4.75
2019-02-15T19:31:07.255Z,4.72
2019-02-15T19:36:12.712Z,4.65
2019-02-15T19:41:17.979Z,4.59
2019-02-15T19:46:23.446Z,4.68
2019-02-15T19:51:28.908Z,4.70
2019-02-15T19:56:34.160Z,4.66
2019-02-15T20:01:39.609Z,4.61
2019-02-15T20:06:44.769Z,4.62
2019-02-15T20:11:50.342Z,4.63
2019-02-15T20:16:55.789Z,4.71
2019-02-15T20:22:01.457Z,4.72
2019-02-15T20:27:06.537Z,4.81
2019-02-15T20:32:11.965Z,4.82
2019-02-15T20:37:18.353Z,4.87
2019-02-15T20:42:23.557Z,4.87
2019-02-15T20:47:28.670Z,4.74
2019-02-15T20:52:33.929Z,4.71
2019-02-15T20:57:39.538Z,4.65
2019-02-15T21:02:44.960Z,4.58
2019-02-15T21:07:50.932Z,4.62
2019-02-15T21:12:56.378Z,4.63
2019-02-15T21:18:01.536Z,4.51
2019-02-15T21:23:07.000Z,4.49
2019-02-15T21:28:12.245Z,4.43
2019-02-15T21:33:17.405Z,4.39
2019-02-15T21:38:22.842Z,4.29
2019-02-15T21:43:28.134Z,4.17
2019-02-15T21:48:33.370Z,4.18
2019-02-15T21:53:38.851Z,4.10
2019-02-15T21:58:44.206Z,4.02
2019-02-15T22:03:49.543Z,4.03
2019-02-15T22:08:55.421Z,3.97
2019-02-15T22:14:01.207Z,3.91
2019-02-15T22:19:06.753Z,4.07
2019-02-15T22:24:11.943Z,4.14
2019-02-15T22:29:16.998Z,4.11
2019-02-15T22:34:22.328Z,4.09
2019-02-15T22:39:27.489Z,4.06
2019-02-15T22:44:33.235Z,4.00
2019-02-15T22:49:43.259Z,3.97
2019-02-15T22:54:45.780Z,3.98
2019-02-15T22:59:51.218Z,3.94
2019-02-15T23:04:56.836Z,3.88
2019-02-15T23:10:02.314Z,3.79
2019-02-15T23:15:08.249Z,3.73
2019-02-15T23:20:13.631Z,3.51
2019-02-15T23:25:19.043Z,3.47
2019-02-15T23:30:24.574Z,3.47
2019-02-15T23:35:29.804Z,3.59
2019-02-15T23:45:39.261Z,3.87
2019-02-15T23:50:44.439Z,3.88
2019-02-15T23:55:49.677Z,3.85
